Time;durP1;ratioP1;P1;durP2;ratioP2;P2;SDS_P1;SDS_P2;PMS_P1;PMS_P2;Temp;Humidity;BMP_temperature;BMP_pressure;BME280_temperature;BME280_humidity;BME280_pressure;Samples;Min_cycle;Max_cycle;Signal;HPM_P1;HPM_P2
2021/05/01 00:01:13;;;;;;;65.50;58.73;;;8.00;99.90;;;;;;5011382;28;20450;-74
2021/05/01 00:03:39;;;;;;;61.57;54.97;;;8.10;99.90;;;;;;5010848;28;20450;-74
2021/05/01 00:06:05;;;;;;;66.23;59.00;;;8.00;99.90;;;;;;5011108;28;20450;-74
2021/05/01 00:08:32;;;;;;;63.07;55.47;;;8.00;99.90;;;;;;5011071;28;20446;-74
2021/05/01 00:11:01;;;;;;;64.83;57.80;;;8.10;99.90;;;;;;5010923;28;20453;-74
2021/05/01 00:13:29;;;;;;;64.23;53.73;;;8.10;99.90;;;;;;5010867;28;20485;-74
2021/05/01 00:15:55;;;;;;;59.70;52.83;;;8.10;99.90;;;;;;5010919;28;20706;-74
2021/05/01 00:18:22;;;;;;;63.73;53.70;;;8.00;99.90;;;;;;5010888;28;20453;-74
2021/05/01 00:20:48;;;;;;;60.20;53.60;;;8.10;99.90;;;;;;5011161;28;20464;-74
2021/05/01 00:23:14;;;;;;;60.50;54.00;;;8.10;99.90;;;;;;5010878;28;20457;-73
2021/05/01 00:25:41;;;;;;;61.60;53.43;;;8.10;99.90;;;;;;5010914;28;20457;-73
2021/05/01 00:28:07;;;;;;;59.50;53.70;;;8.10;99.90;;;;;;5010832;28;20966;-73
2021/05/01 00:30:34;;;;;;;61.70;54.20;;;8.20;99.90;;;;;;5010935;28;20453;-74
2021/05/01 00:33:00;;;;;;;59.90;52.80;;;8.20;99.90;;;;;;5010577;28;20482;-74
2021/05/01 00:35:27;;;;;;;60.03;53.77;;;8.20;99.90;;;;;;5010729;28;20552;-74
2021/05/01 00:37:54;;;;;;;59.00;52.63;;;8.10;99.90;;;;;;5010602;28;20947;-73
2021/05/01 00:40:20;;;;;;;64.80;51.90;;;9.10;99.90;;;;;;5010692;28;20537;-73
2021/05/01 00:42:47;;;;;;;57.47;51.57;;;8.10;99.90;;;;;;5010785;28;20952;-73
2021/05/01 00:45:14;;;;;;;58.20;51.53;;;8.10;99.90;;;;;;5010817;28;20469;-73
2021/05/01 00:47:41;;;;;;;56.57;50.47;;;8.20;99.90;;;;;;5010766;28;20493;-73
2021/05/01 00:50:08;;;;;;;56.23;50.33;;;8.30;99.90;;;;;;5010724;28;20454;-73
2021/05/01 00:52:35;;;;;;;57.73;51.57;;;8.30;99.90;;;;;;5013937;28;20511;-74
2021/05/01 00:55:03;;;;;;;60.10;53.50;;;8.40;99.90;;;;;;5013766;28;20483;-74
2021/05/01 00:57:30;;;;;;;57.17;51.23;;;8.40;99.90;;;;;;5014221;28;20468;-74
2021/05/01 00:59:57;;;;;;;56.53;50.43;;;8.40;99.90;;;;;;5014073;28;21030;-74
2021/05/01 01:02:27;;;;;;;55.37;49.53;;;8.40;99.90;;;;;;5014022;28;20453;-73
2021/05/01 01:04:54;;;;;;;54.33;48.83;;;8.50;99.90;;;;;;5013884;28;20800;-74
2021/05/01 01:07:21;;;;;;;58.50;52.43;;;8.50;99.90;;;;;;5013912;28;20449;-74
2021/05/01 01:09:48;;;;;;;57.40;51.40;;;8.50;99.90;;;;;;5013729;28;20457;-75
2021/05/01 01:12:15;;;;;;;54.37;48.70;;;8.60;99.90;;;;;;5013818;28;20489;-74
2021/05/01 01:14:41;;;;;;;55.87;50.00;;;8.50;99.90;;;;;;5013817;28;20493;-74
2021/05/01 01:17:09;;;;;;;56.37;47.90;;;8.30;99.90;;;;;;5013643;28;20465;-74
2021/05/01 01:19:37;;;;;;;56.77;50.43;;;8.30;99.90;;;;;;5013795;28;20456;-74
2021/05/01 01:22:12;;;;;;;53.67;48.03;;;8.20;99.90;;;;;;5013598;28;20515;-74
2021/05/01 01:24:38;;;;;;;59.77;53.27;;;8.20;99.90;;;;;;5013553;28;20445;-74
2021/05/01 01:27:06;;;;;;;56.77;49.47;;;8.30;99.90;;;;;;5013734;28;20528;-74
2021/05/01 01:29:33;;;;;;;53.03;47.27;;;8.30;99.90;;;;;;5013594;28;20804;-74
2021/05/01 01:31:59;;;;;;;55.03;49.23;;;8.40;99.90;;;;;;5013143;28;20496;-74
2021/05/01 01:34:26;;;;;;;58.43;48.30;;;8.40;99.90;;;;;;5013017;28;20498;-75
2021/05/01 01:36:52;;;;;;;58.07;50.27;;;8.30;99.90;;;;;;5013341;28;21102;-75
2021/05/01 01:39:20;;;;;;;52.43;43.73;;;8.40;99.90;;;;;;5013355;28;20457;-76
2021/05/01 01:41:46;;;;;;;49.60;44.13;;;8.40;99.90;;;;;;5013826;28;20791;-74
2021/05/01 01:44:12;;;;;;;54.37;46.00;;;8.40;99.90;;;;;;5013099;28;20461;-75
2021/05/01 01:46:39;;;;;;;54.60;45.23;;;8.40;99.90;;;;;;5013163;28;20983;-75
2021/05/01 01:49:05;;;;;;;51.57;45.53;;;8.40;99.90;;;;;;5013385;28;20504;-75
2021/05/01 01:51:31;;;;;;;49.87;44.30;;;8.50;99.90;;;;;;5013176;28;20449;-76
2021/05/01 01:53:58;;;;;;;54.70;46.50;;;8.50;99.90;;;;;;5013127;28;20851;-75
2021/05/01 01:56:26;;;;;;;49.87;44.37;;;8.50;99.90;;;;;;5012756;28;20450;-75
2021/05/01 01:58:53;;;;;;;49.03;43.37;;;8.40;99.90;;;;;;5013002;28;20469;-75
2021/05/01 02:01:19;;;;;;;50.23;44.80;;;8.40;99.90;;;;;;5013016;28;20457;-75
2021/05/01 02:03:45;;;;;;;50.27;44.30;;;8.40;99.90;;;;;;5012388;28;20504;-74
2021/05/01 02:06:12;;;;;;;52.87;44.30;;;8.40;99.90;;;;;;5012542;28;20449;-73
2021/05/01 02:08:38;;;;;;;53.13;42.77;;;8.50;99.90;;;;;;5012675;28;20536;-74
2021/05/01 02:11:04;;;;;;;52.90;45.63;;;8.40;99.90;;;;;;5012796;28;20532;-74
2021/05/01 02:13:31;;;;;;;49.20;43.67;;;8.40;99.90;;;;;;5012701;28;20492;-73
2021/05/01 02:15:57;;;;;;;49.97;43.87;;;8.50;99.90;;;;;;5012544;28;20457;-73
2021/05/01 02:18:24;;;;;;;51.93;45.00;;;8.50;99.90;;;;;;5012500;28;20450;-73
2021/05/01 02:20:50;;;;;;;57.57;45.63;;;8.60;99.90;;;;;;5012763;28;20454;-73
2021/05/01 02:23:16;;;;;;;55.60;45.47;;;8.40;99.90;;;;;;5012411;28;20951;-73
2021/05/01 02:25:43;;;;;;;50.43;45.30;;;8.40;99.90;;;;;;5012349;28;20455;-73
2021/05/01 02:28:10;;;;;;;53.07;46.80;;;8.50;99.90;;;;;;5012361;28;20457;-73
2021/05/01 02:30:37;;;;;;;51.67;43.70;;;8.30;99.90;;;;;;5012297;28;20463;-72
2021/05/01 02:33:03;;;;;;;47.70;42.73;;;8.50;99.90;;;;;;5012296;28;20473;-72
2021/05/01 02:35:31;;;;;;;54.43;44.43;;;8.50;99.90;;;;;;5012178;28;20488;-72
2021/05/01 02:37:57;;;;;;;53.50;47.73;;;8.50;99.90;;;;;;5012238;28;20782;-72
2021/05/01 02:40:28;;;;;;;50.33;44.83;;;8.60;99.90;;;;;;5012185;28;20458;-73
2021/05/01 02:42:54;;;;;;;50.97;43.30;;;8.60;99.90;;;;;;5012098;28;20508;-72
2021/05/01 02:45:20;;;;;;;48.20;42.97;;;8.60;99.90;;;;;;5012298;28;20454;-72
2021/05/01 02:47:48;;;;;;;51.20;43.13;;;8.60;99.90;;;;;;5012131;28;20586;-72
2021/05/01 02:50:15;;;;;;;50.80;43.90;;;8.60;99.90;;;;;;5012148;28;20450;-73
2021/05/01 02:52:42;;;;;;;52.03;43.70;;;8.70;99.90;;;;;;5011889;28;20461;-72
2021/05/01 02:55:10;;;;;;;52.77;43.43;;;8.70;99.90;;;;;;5011887;28;20555;-72
2021/05/01 02:57:36;;;;;;;47.37;42.23;;;8.70;99.90;;;;;;5011732;28;20461;-72
2021/05/01 03:00:05;;;;;;;53.90;43.10;;;8.70;99.90;;;;;;5011833;28;20464;-72
2021/05/01 03:02:31;;;;;;;47.60;42.60;;;8.70;99.90;;;;;;5011876;28;20463;-72
2021/05/01 03:04:59;;;;;;;52.77;44.83;;;8.70;99.90;;;;;;5011725;28;20815;-73
2021/05/01 03:07:25;;;;;;;49.50;42.23;;;8.80;99.90;;;;;;5011869;28;21231;-73
2021/05/01 03:09:52;;;;;;;48.70;42.40;;;8.70;99.90;;;;;;5011483;28;20457;-73
2021/05/01 03:12:18;;;;;;;55.20;43.67;;;8.60;99.90;;;;;;5011695;28;20449;-72
2021/05/01 03:14:44;;;;;;;57.33;45.17;;;8.60;99.90;;;;;;5010613;28;20481;-73
2021/05/01 03:17:11;;;;;;;51.63;43.53;;;8.60;99.90;;;;;;5011606;28;20446;-73
2021/05/01 03:19:37;;;;;;;47.90;42.77;;;8.50;99.90;;;;;;5011535;28;20462;-73
2021/05/01 03:22:04;;;;;;;53.90;44.63;;;8.30;99.90;;;;;;5011602;28;20454;-72
2021/05/01 03:24:31;;;;;;;55.90;45.70;;;8.30;99.90;;;;;;5011167;28;21018;-73
2021/05/01 03:26:57;;;;;;;54.40;43.17;;;8.20;99.90;;;;;;5011398;28;20469;-72
2021/05/01 03:29:24;;;;;;;54.73;44.07;;;8.10;99.90;;;;;;5011306;28;20948;-72
2021/05/01 03:31:50;;;;;;;59.53;47.57;;;8.00;99.90;;;;;;5011546;28;20460;-72
2021/05/01 03:34:16;;;;;;;57.90;44.97;;;7.90;99.90;;;;;;5010842;28;20494;-72
2021/05/01 03:36:42;;;;;;;60.50;45.93;;;7.80;99.90;;;;;;5011457;28;20450;-71
2021/05/01 03:39:10;;;;;;;58.77;47.27;;;7.70;99.90;;;;;;5011172;28;20462;-70
2021/05/01 03:41:36;;;;;;;59.03;45.20;;;7.60;99.90;;;;;;5011025;28;20625;-70
2021/05/01 03:44:02;;;;;;;53.17;45.40;;;7.60;99.90;;;;;;5011465;28;20789;-70
2021/05/01 03:46:29;;;;;;;59.20;45.97;;;7.50;99.90;;;;;;5011014;28;20870;-71
2021/05/01 03:48:55;;;;;;;63.80;45.73;;;7.40;99.90;;;;;;5011153;28;21183;-70
2021/05/01 03:51:21;;;;;;;53.57;44.77;;;7.40;99.90;;;;;;5011267;28;20484;-70
2021/05/01 03:53:47;;;;;;;57.10;46.70;;;7.30;99.90;;;;;;5011054;28;20857;-70
2021/05/01 03:56:14;;;;;;;61.30;47.03;;;7.20;99.90;;;;;;5011007;28;20511;-70
2021/05/01 03:58:41;;;;;;;66.50;49.77;;;7.20;99.90;;;;;;5010887;28;20449;-70
2021/05/01 04:01:07;;;;;;;64.43;47.97;;;7.20;99.90;;;;;;5011359;28;20458;-70
2021/05/01 04:03:33;;;;;;;65.43;50.53;;;7.20;99.90;;;;;;5011285;28;20450;-70
2021/05/01 04:05:59;;;;;;;62.90;48.13;;;7.20;99.90;;;;;;5011000;28;20458;-70
2021/05/01 04:08:26;;;;;;;64.67;48.10;;;7.20;99.90;;;;;;5010943;28;20457;-70
2021/05/01 04:10:52;;;;;;;62.53;46.57;;;7.10;99.90;;;;;;5010757;28;20461;-70
2021/05/01 04:13:19;;;;;;;71.07;47.97;;;7.10;99.90;;;;;;5011090;28;20497;-70
2021/05/01 04:15:46;;;;;;;61.43;45.27;;;7.20;99.90;;;;;;5010951;28;20457;-70
2021/05/01 04:18:13;;;;;;;62.60;46.13;;;7.40;99.90;;;;;;5010913;28;20441;-70
2021/05/01 04:20:39;;;;;;;59.00;46.37;;;7.30;99.90;;;;;;5010796;28;20492;-70
2021/05/01 04:23:06;;;;;;;68.73;47.30;;;7.30;99.90;;;;;;5011084;28;20450;-71
2021/05/01 04:25:32;;;;;;;66.47;50.27;;;7.30;99.90;;;;;;5011220;28;20454;-71
2021/05/01 04:27:58;;;;;;;72.03;49.73;;;7.40;99.90;;;;;;5014651;28;20484;-71
2021/05/01 04:30:25;;;;;;;72.37;48.70;;;7.50;99.90;;;;;;5014731;28;20463;-72
2021/05/01 04:32:51;;;;;;;74.50;50.87;;;7.60;99.90;;;;;;5014625;28;20838;-71
2021/05/01 04:35:17;;;;;;;68.80;49.07;;;7.70;99.90;;;;;;5014400;28;20485;-71
2021/05/01 04:37:44;;;;;;;68.20;48.47;;;7.80;99.90;;;;;;5014618;28;20461;-71
2021/05/01 04:40:11;;;;;;;62.67;47.00;;;7.90;99.90;;;;;;5014228;28;20446;-71
2021/05/01 04:42:41;;;;;;;63.43;46.30;;;8.00;99.90;;;;;;5014280;28;20480;-72
2021/05/01 04:45:09;;;;;;;71.10;50.90;;;8.20;99.90;;;;;;5014363;28;20454;-72
2021/05/01 04:47:36;;;;;;;61.43;48.10;;;8.40;99.90;;;;;;5014636;28;20453;-72
2021/05/01 04:50:02;;;;;;;67.30;50.60;;;8.60;99.90;;;;;;5014459;28;20569;-72
2021/05/01 04:52:30;;;;;;;55.20;45.40;;;8.70;99.90;;;;;;5014270;28;20479;-71
2021/05/01 04:54:57;;;;;;;51.60;44.73;;;8.80;99.90;;;;;;5014059;28;20486;-71
2021/05/01 04:57:23;;;;;;;62.93;47.57;;;8.90;99.90;;;;;;5013969;28;20497;-71
2021/05/01 04:59:50;;;;;;;57.90;46.47;;;9.00;99.90;;;;;;5014349;28;20861;-71
2021/05/01 05:02:16;;;;;;;55.23;47.40;;;9.10;99.90;;;;;;5014105;28;20450;-71
2021/05/01 05:04:43;;;;;;;60.90;47.37;;;9.20;99.90;;;;;;5013896;28;20453;-71
2021/05/01 05:07:09;;;;;;;59.10;47.40;;;9.10;99.90;;;;;;5013920;28;20512;-72
2021/05/01 05:09:35;;;;;;;54.07;45.13;;;9.40;99.90;;;;;;5013507;28;20448;-71
2021/05/01 05:12:01;;;;;;;52.13;43.50;;;9.80;99.90;;;;;;5023907;28;20454;-70
2021/05/01 05:14:28;;;;;;;48.53;42.80;;;9.90;99.90;;;;;;5021361;28;20474;-71
2021/05/01 05:16:54;;;;;;;53.57;46.30;;;9.90;99.90;;;;;;5022720;28;20787;-71
2021/05/01 05:19:20;;;;;;;49.50;43.67;;;10.10;99.90;;;;;;5022907;28;20448;-70
2021/05/01 05:21:47;;;;;;;47.63;42.70;;;10.00;99.90;;;;;;5021319;28;20438;-70
2021/05/01 05:24:13;;;;;;;49.00;41.67;;;10.00;99.90;;;;;;5022708;28;20441;-71
2021/05/01 05:26:39;;;;;;;47.87;42.23;;;10.20;99.90;;;;;;5022422;28;20449;-71
2021/05/01 05:29:09;;;;;;;46.90;42.00;;;10.40;99.90;;;;;;5021114;28;20446;-71
2021/05/01 05:31:35;;;;;;;51.03;42.67;;;10.40;99.90;;;;;;5022312;28;20457;-70
2021/05/01 05:34:01;;;;;;;45.43;40.60;;;10.40;99.90;;;;;;5022373;28;20505;-70
2021/05/01 05:36:28;;;;;;;45.33;40.03;;;10.50;99.90;;;;;;5021201;28;20453;-71
2021/05/01 05:38:55;;;;;;;44.80;40.37;;;10.80;99.90;;;;;;5020521;28;20456;-70
2021/05/01 05:41:23;;;;;;;46.30;41.40;;;10.80;99.90;;;;;;5022752;28;20468;-70
2021/05/01 05:43:49;;;;;;;40.83;36.60;;;11.00;99.90;;;;;;5021478;28;20448;-70
2021/05/01 05:46:17;;;;;;;45.60;39.97;;;11.40;99.90;;;;;;5021395;28;20446;-70
2021/05/01 05:48:43;;;;;;;40.80;36.77;;;11.90;99.90;;;;;;5021006;28;20871;-70
2021/05/01 05:51:09;;;;;;;38.83;35.00;;;12.20;99.90;;;;;;5022417;28;20448;-70
2021/05/01 05:53:36;;;;;;;37.23;33.67;;;12.30;99.90;;;;;;5021100;28;20511;-70
2021/05/01 05:56:04;;;;;;;38.50;34.50;;;12.70;99.90;;;;;;5021305;28;20441;-70
2021/05/01 05:58:31;;;;;;;37.97;34.33;;;12.90;99.90;;;;;;5022641;28;20436;-70
2021/05/01 06:00:57;;;;;;;38.90;34.90;;;12.90;99.90;;;;;;5020705;28;20968;-70
2021/05/01 06:03:24;;;;;;;41.40;37.17;;;12.70;99.90;;;;;;5020947;28;20452;-70
2021/05/01 06:05:55;;;;;;;39.63;35.47;;;12.70;99.90;;;;;;5022314;28;20942;-70
2021/05/01 06:08:23;;;;;;;40.73;36.80;;;12.70;99.90;;;;;;5021443;28;20942;-71
2021/05/01 06:10:50;;;;;;;39.20;35.57;;;12.70;99.90;;;;;;5020336;28;20460;-71
2021/05/01 06:13:21;;;;;;;34.27;31.00;;;12.60;99.90;;;;;;5021756;28;20977;-71
2021/05/01 06:15:48;;;;;;;37.47;33.80;;;12.60;99.90;;;;;;5022326;28;20478;-71
2021/05/01 06:18:17;;;;;;;39.40;35.73;;;12.40;99.90;;;;;;5020401;28;20469;-71
2021/05/01 06:20:44;;;;;;;35.80;32.30;;;11.90;99.90;;;;;;5020778;28;20547;-72
2021/05/01 06:23:11;;;;;;;36.23;32.80;;;11.60;99.90;;;;;;5021788;28;20995;-71
2021/05/01 06:25:37;;;;;;;36.47;33.20;;;11.40;99.90;;;;;;5029764;28;20450;-71
2021/05/01 06:28:05;;;;;;;37.20;33.80;;;11.40;99.90;;;;;;5032313;28;20456;-71
2021/05/01 06:30:38;;;;;;;38.30;34.53;;;11.50;99.90;;;;;;5031833;28;20467;-71
2021/05/01 06:33:05;;;;;;;42.90;38.50;;;11.50;99.90;;;;;;5032023;28;20886;-71
2021/05/01 06:35:32;;;;;;;38.83;34.93;;;11.60;99.90;;;;;;5031674;28;20949;-72
2021/05/01 06:37:58;;;;;;;39.43;35.43;;;11.60;99.90;;;;;;5031781;28;20456;-72
2021/05/01 06:40:31;;;;;;;38.37;34.73;;;11.90;99.90;;;;;;5031897;28;20453;-71
2021/05/01 06:43:01;;;;;;;40.43;36.40;;;12.50;99.90;;;;;;5031588;28;20526;-71
2021/05/01 06:45:27;;;;;;;40.00;36.10;;;12.90;99.90;;;;;;5031098;28;20453;-71
2021/05/01 06:47:57;;;;;;;40.83;36.80;;;13.40;99.90;;;;;;5031764;28;20457;-71
2021/05/01 06:50:26;;;;;;;40.67;36.50;;;13.50;99.90;;;;;;5031403;28;20449;-70
2021/05/01 06:52:53;;;;;;;39.03;35.10;;;13.30;99.90;;;;;;5031467;28;20460;-70
2021/05/01 06:55:21;;;;;;;38.23;34.60;;;13.20;99.90;;;;;;5031444;28;20496;-70
2021/05/01 06:57:49;;;;;;;33.63;30.57;;;13.10;99.90;;;;;;5020336;28;20499;-70
2021/05/01 07:00:16;;;;;;;39.17;35.47;;;12.80;99.90;;;;;;5021431;28;20836;-70
2021/05/01 07:02:45;;;;;;;35.63;32.30;;;12.80;99.90;;;;;;5020020;28;20473;-68
2021/05/01 07:05:15;;;;;;;35.87;32.30;;;12.40;99.90;;;;;;5021922;28;20784;-70
2021/05/01 07:07:42;;;;;;;32.20;29.33;;;12.20;99.90;;;;;;5031698;28;20453;-70
2021/05/01 07:10:09;;;;;;;36.93;33.40;;;11.90;99.90;;;;;;5020582;28;20471;-70
2021/05/01 07:12:37;;;;;;;40.27;36.00;;;12.00;99.90;;;;;;5020769;28;20548;-70
2021/05/01 07:15:04;;;;;;;37.70;33.90;;;12.10;99.90;;;;;;5019089;28;20485;-70
2021/05/01 07:17:31;;;;;;;37.07;33.50;;;12.40;99.90;;;;;;5020305;28;20448;-70
2021/05/01 07:19:59;;;;;;;35.30;31.73;;;12.40;99.90;;;;;;5020796;28;20813;-71
2021/05/01 07:22:26;;;;;;;36.33;32.93;;;12.80;99.90;;;;;;5018967;28;20467;-70
2021/05/01 07:24:52;;;;;;;35.03;31.93;;;12.90;99.90;;;;;;5020099;28;20445;-70
2021/05/01 07:27:19;;;;;;;35.77;32.53;;;12.50;99.90;;;;;;5020795;28;20438;-69
2021/05/01 07:29:48;;;;;;;35.43;32.17;;;12.20;99.90;;;;;;5018941;28;20480;-70
2021/05/01 07:32:16;;;;;;;35.23;32.00;;;12.20;99.90;;;;;;5020161;28;20465;-69
2021/05/01 07:34:50;;;;;;;35.17;31.77;;;12.10;99.90;;;;;;5020536;28;20493;-69
2021/05/01 07:37:19;;;;;;;36.60;33.33;;;12.20;99.90;;;;;;5020233;28;20458;-69
2021/05/01 07:39:49;;;;;;;34.93;31.73;;;12.00;99.90;;;;;;5018557;28;20815;-69
2021/05/01 07:42:17;;;;;;;36.47;32.80;;;11.50;99.90;;;;;;5019560;28;20455;-70
2021/05/01 07:44:45;;;;;;;36.03;32.80;;;11.80;99.90;;;;;;5020763;28;20448;-69
2021/05/01 07:47:12;;;;;;;38.63;34.83;;;12.00;99.90;;;;;;5019498;28;20549;-69
2021/05/01 07:49:38;;;;;;;37.20;33.60;;;12.20;99.90;;;;;;5018829;28;20459;-69
2021/05/01 07:52:06;;;;;;;35.77;32.53;;;12.20;99.90;;;;;;5020897;28;20437;-69
2021/05/01 07:54:34;;;;;;;35.37;32.17;;;12.00;99.90;;;;;;5019569;28;20486;-69
2021/05/01 07:57:01;;;;;;;36.43;33.13;;;11.80;99.90;;;;;;5018755;28;20453;-69
2021/05/01 07:59:27;;;;;;;36.33;33.23;;;11.70;99.90;;;;;;5018730;28;20442;-69
2021/05/01 08:01:53;;;;;;;36.93;33.50;;;11.70;99.90;;;;;;5022501;28;20960;-70
2021/05/01 08:04:20;;;;;;;34.47;31.27;;;11.40;99.90;;;;;;5024881;28;20437;-69
2021/05/01 08:06:46;;;;;;;33.50;30.27;;;11.60;99.90;;;;;;5022619;28;20489;-69
2021/05/01 08:09:12;;;;;;;36.87;33.27;;;11.70;99.90;;;;;;5023767;28;20441;-68
2021/05/01 08:11:38;;;;;;;33.90;30.67;;;11.90;99.90;;;;;;5024192;28;20446;-69
2021/05/01 08:14:05;;;;;;;34.33;31.27;;;12.10;99.90;;;;;;5022179;28;20493;-70
2021/05/01 08:16:32;;;;;;;36.47;33.00;;;12.20;99.90;;;;;;5023910;28;20448;-69
2021/05/01 08:19:00;;;;;;;36.27;33.00;;;12.40;99.90;;;;;;5024324;28;20446;-69
2021/05/01 08:21:28;;;;;;;35.60;32.10;;;12.50;99.90;;;;;;5022688;28;20446;-70
2021/05/01 08:23:54;;;;;;;35.07;31.93;;;12.70;99.90;;;;;;5023208;28;20445;-70
2021/05/01 08:26:21;;;;;;;35.53;32.13;;;13.00;99.90;;;;;;5024499;28;20805;-69
2021/05/01 08:28:47;;;;;;;35.17;32.00;;;12.90;99.90;;;;;;5022629;28;20438;-70
2021/05/01 08:31:14;;;;;;;33.73;30.50;;;12.90;99.90;;;;;;5023501;28;20441;-69
2021/05/01 08:33:41;;;;;;;33.43;30.43;;;13.00;99.90;;;;;;5023764;28;20481;-69
2021/05/01 08:36:08;;;;;;;33.63;30.53;;;12.90;99.90;;;;;;5022455;28;20454;-72
2021/05/01 08:38:36;;;;;;;34.90;31.77;;;12.80;99.90;;;;;;5023289;28;20456;-72
2021/05/01 08:41:03;;;;;;;35.60;32.17;;;12.60;99.90;;;;;;5030556;28;20456;-69
2021/05/01 08:43:30;;;;;;;36.20;32.80;;;12.30;99.90;;;;;;5034440;28;20449;-69
2021/05/01 08:45:58;;;;;;;34.33;31.20;;;12.00;99.90;;;;;;5034026;28;20810;-69
2021/05/01 08:48:26;;;;;;;35.53;32.03;;;12.00;99.90;;;;;;5033922;28;20460;-68
2021/05/01 08:50:59;;;;;;;36.00;32.73;;;12.40;99.90;;;;;;5033808;28;20459;-68
2021/05/01 08:53:25;;;;;;;36.10;32.70;;;12.60;99.90;;;;;;5033858;28;20966;-69
2021/05/01 08:55:52;;;;;;;36.70;33.33;;;12.80;99.90;;;;;;5033843;28;20511;-68
2021/05/01 08:58:18;;;;;;;37.10;33.40;;;13.00;99.90;;;;;;5033998;28;20452;-68
2021/05/01 09:00:47;;;;;;;35.50;32.10;;;13.10;99.90;;;;;;5033752;28;20459;-70
2021/05/01 09:03:17;;;;;;;34.70;31.40;;;13.30;99.90;;;;;;5033723;28;20518;-68
2021/05/01 09:05:45;;;;;;;34.03;30.63;;;13.50;99.90;;;;;;5033855;28;20500;-69
2021/05/01 09:08:12;;;;;;;34.27;31.17;;;13.60;99.90;;;;;;5033508;28;20449;-69
2021/05/01 09:10:41;;;;;;;32.10;29.30;;;13.60;99.90;;;;;;5033638;28;20859;-69
2021/05/01 09:13:13;;;;;;;35.10;32.00;;;13.30;99.90;;;;;;5032150;28;20539;-69
2021/05/01 09:15:39;;;;;;;35.47;32.03;;;13.20;99.90;;;;;;5033562;28;20488;-68
2021/05/01 09:18:06;;;;;;;34.93;31.70;;;13.40;99.90;;;;;;5033623;28;20445;-68
2021/05/01 09:20:33;;;;;;;34.87;31.77;;;13.50;99.90;;;;;;5033599;28;20445;-69
2021/05/01 09:23:02;;;;;;;31.83;29.13;;;13.70;99.90;;;;;;5033308;28;20483;-69
2021/05/01 09:25:31;;;;;;;34.67;31.57;;;14.00;99.90;;;;;;5033364;28;20819;-69
2021/05/01 09:28:07;;;;;;;33.10;30.27;;;14.00;99.90;;;;;;5033291;28;20993;-68
2021/05/01 09:30:35;;;;;;;33.03;30.13;;;14.20;99.90;;;;;;5033451;28;20488;-69
2021/05/01 09:33:23;;;;;;;30.43;27.83;;;14.50;99.90;;;;;;5033261;28;20504;-69
2021/05/01 09:35:53;;;;;;;34.23;31.40;;;15.20;99.90;;;;;;5022962;28;20569;-69
2021/05/01 09:38:21;;;;;;;33.20;30.50;;;15.40;99.90;;;;;;5021568;28;20442;-69
2021/05/01 09:40:48;;;;;;;31.73;28.97;;;15.60;99.90;;;;;;5021388;28;20456;-69
2021/05/01 09:43:15;;;;;;;32.70;29.80;;;16.00;99.60;;;;;;5022877;28;20445;-68
2021/05/01 09:45:42;;;;;;;33.70;30.60;;;15.70;99.10;;;;;;5021448;28;20442;-68
2021/05/01 09:48:13;;;;;;;32.83;30.00;;;15.80;99.90;;;;;;5021068;28;20453;-69
2021/05/01 09:50:40;;;;;;;33.87;30.97;;;15.60;99.40;;;;;;5020222;28;20457;-69
2021/05/01 09:53:08;;;;;;;33.37;30.27;;;15.60;99.40;;;;;;5017559;28;20441;-69
2021/05/01 09:55:43;;;;;;;37.83;34.23;;;15.50;99.80;;;;;;5015339;28;20906;-69
2021/05/01 09:58:18;;;;;;;36.67;33.40;;;15.10;99.90;;;;;;5012997;28;20492;-69
2021/05/01 10:00:45;;;;;;;34.97;32.07;;;15.10;99.90;;;;;;5013158;28;20445;-68
2021/05/01 10:03:25;;;;;;;33.63;30.90;;;15.70;99.90;;;;;;5012936;28;21154;-68
2021/05/01 10:05:54;;;;;;;37.73;34.63;;;16.10;99.50;;;;;;5013195;28;20453;-69
2021/05/01 10:08:23;;;;;;;35.00;32.10;;;16.20;97.60;;;;;;5012838;28;20819;-70
2021/05/01 10:10:50;;;;;;;35.03;32.10;;;16.20;97.60;;;;;;5012879;28;20808;-69
2021/05/01 10:13:17;;;;;;;32.63;30.03;;;16.40;97.80;;;;;;5012767;28;20461;-69
2021/05/01 10:15:44;;;;;;;33.43;30.40;;;16.70;97.50;;;;;;5012760;28;20869;-68
2021/05/01 10:18:12;;;;;;;35.90;32.70;;;16.90;96.80;;;;;;5015298;28;20441;-69
2021/05/01 10:20:43;;;;;;;34.40;31.50;;;16.50;95.90;;;;;;5022045;28;20434;-69
2021/05/01 10:23:11;;;;;;;35.87;32.90;;;16.80;96.60;;;;;;5020693;28;20492;-69
2021/05/01 10:25:37;;;;;;;35.30;32.50;;;17.20;96.00;;;;;;5020394;28;20499;-70
2021/05/01 10:28:09;;;;;;;35.97;32.77;;;16.70;96.40;;;;;;5022273;28;20978;-70
2021/05/01 10:30:37;;;;;;;35.50;32.67;;;16.60;96.70;;;;;;5019968;28;20508;-68
2021/05/01 10:33:16;;;;;;;35.43;32.33;;;17.10;96.40;;;;;;5020491;28;20557;-69
2021/05/01 10:35:51;;;;;;;33.60;30.70;;;17.30;95.50;;;;;;5020231;28;20735;-69
2021/05/01 10:38:19;;;;;;;36.03;32.83;;;16.40;95.50;;;;;;5020972;28;20515;-67
2021/05/01 10:40:48;;;;;;;34.37;31.47;;;16.00;96.20;;;;;;5022410;28;20527;-68
2021/05/01 10:43:18;;;;;;;33.93;30.93;;;16.40;96.60;;;;;;5021485;28;20508;-69
2021/05/01 10:45:56;;;;;;;32.90;30.00;;;16.20;96.70;;;;;;5020180;28;20446;-69
2021/05/01 10:48:24;;;;;;;33.63;30.83;;;15.40;97.10;;;;;;5020234;28;20449;-69
2021/05/01 10:51:08;;;;;;;33.83;30.77;;;15.50;98.10;;;;;;5021503;28;20847;-70
2021/05/01 10:53:35;;;;;;;34.50;31.50;;;16.20;97.70;;;;;;5021257;28;20446;-69
2021/05/01 10:56:02;;;;;;;35.07;32.27;;;15.80;97.30;;;;;;5029185;28;20448;-69
2021/05/01 10:58:37;;;;;;;33.93;30.90;;;15.30;98.00;;;;;;5032211;28;20452;-69
2021/05/01 11:01:06;;;;;;;34.33;31.33;;;15.20;98.50;;;;;;5032163;28;20459;-69
2021/05/01 11:03:45;;;;;;;36.23;32.87;;;15.20;98.70;;;;;;5032167;28;20526;-69
2021/05/01 11:06:21;;;;;;;36.37;33.07;;;15.20;99.30;;;;;;5031982;28;20453;-69
2021/05/01 11:08:56;;;;;;;34.30;31.13;;;15.00;99.20;;;;;;5032034;28;20899;-70
2021/05/01 11:11:29;;;;;;;36.83;33.60;;;15.20;99.90;;;;;;5031898;28;20457;-69
2021/05/01 11:13:57;;;;;;;36.03;32.70;;;15.30;99.10;;;;;;5031814;28;20473;-69
2021/05/01 11:16:32;;;;;;;35.00;32.00;;;15.40;98.90;;;;;;5031935;28;20464;-69
2021/05/01 11:18:59;;;;;;;33.53;30.43;;;15.20;99.20;;;;;;5031859;28;20452;-70
2021/05/01 11:21:28;;;;;;;32.67;29.83;;;14.70;99.50;;;;;;5031601;28;20484;-71
2021/05/01 11:23:56;;;;;;;34.40;31.47;;;14.80;99.90;;;;;;5031581;28;20958;-71
2021/05/01 11:26:23;;;;;;;32.57;29.60;;;14.70;99.90;;;;;;5031830;28;20904;-71
2021/05/01 11:28:49;;;;;;;36.07;32.60;;;14.90;99.90;;;;;;5031844;28;20528;-71
2021/05/01 11:31:17;;;;;;;36.50;33.10;;;14.80;99.90;;;;;;5031751;28;20457;-71
2021/05/01 11:33:45;;;;;;;35.80;32.70;;;14.70;99.90;;;;;;5031172;28;20481;-71
2021/05/01 11:36:16;;;;;;;34.27;31.37;;;14.80;99.90;;;;;;5031002;28;20472;-71
2021/05/01 11:38:44;;;;;;;32.37;29.37;;;14.90;99.90;;;;;;5031531;28;20441;-71
2021/05/01 11:41:12;;;;;;;33.33;30.50;;;14.90;99.90;;;;;;5031579;28;20452;-71
2021/05/01 11:43:40;;;;;;;34.03;30.83;;;15.00;99.90;;;;;;5031447;28;20449;-71
2021/05/01 11:46:16;;;;;;;33.37;30.57;;;15.30;99.90;;;;;;5031506;28;20452;-71
2021/05/01 11:48:54;;;;;;;32.60;29.77;;;15.40;99.40;;;;;;5031524;28;20882;-72
2021/05/01 11:51:29;;;;;;;33.47;29.97;;;15.20;99.90;;;;;;5031558;28;20440;-71
2021/05/01 11:54:03;;;;;;;33.90;30.80;;;15.30;99.40;;;;;;5031240;28;20444;-70
2021/05/01 11:56:42;;;;;;;35.27;32.27;;;15.60;99.40;;;;;;5031263;28;20480;-70
2021/05/01 11:59:10;;;;;;;34.63;31.43;;;15.80;99.90;;;;;;5031298;28;20452;-70
2021/05/01 12:01:48;;;;;;;34.77;31.63;;;15.80;99.20;;;;;;5031377;28;20457;-68
2021/05/01 12:04:17;;;;;;;33.23;30.43;;;16.00;99.10;;;;;;5031392;28;20445;-69
2021/05/01 12:06:48;;;;;;;36.07;32.77;;;16.10;98.40;;;;;;5031207;28;20460;-70
2021/05/01 12:09:17;;;;;;;34.93;31.83;;;16.20;98.60;;;;;;5031179;28;20453;-69
2021/05/01 12:11:46;;;;;;;35.40;32.30;;;16.60;98.00;;;;;;5030896;28;20457;-69
2021/05/01 12:14:13;;;;;;;34.97;31.97;;;16.80;97.70;;;;;;5030964;28;20484;-70
2021/05/01 12:16:40;;;;;;;34.27;31.27;;;16.80;97.10;;;;;;5030951;28;20457;-70
2021/05/01 12:19:06;;;;;;;34.30;31.30;;;17.00;96.90;;;;;;5031159;28;20970;-70
2021/05/01 12:21:41;;;;;;;33.37;30.57;;;17.10;96.30;;;;;;5031125;28;20444;-70
2021/05/01 12:24:23;;;;;;;34.33;31.30;;;17.00;96.60;;;;;;5030963;28;20825;-70
2021/05/01 12:26:49;;;;;;;34.80;31.90;;;17.10;96.70;;;;;;5030819;28;20484;-70
2021/05/01 12:29:29;;;;;;;34.43;31.53;;;17.10;95.80;;;;;;5030973;28;20495;-70
2021/05/01 12:31:58;;;;;;;35.33;32.20;;;16.50;97.10;;;;;;5030964;28;20449;-70
2021/05/01 12:34:58;;;;;;;36.13;32.83;;;16.60;97.20;;;;;;5030756;28;20504;-70